Time;durP1;ratioP1;P1;durP2;ratioP2;P2;SDS_P1;SDS_P2;PMS_P1;PMS_P2;Temp;Humidity;BMP_temperature;BMP_pressure;BME280_temperature;BME280_humidity;BME280_pressure;Samples;Min_cycle;Max_cycle;Signal;HPM_P1;HPM_P2
2021/11/25 00:01:50;;;;;;;34.20;14.98;;;2.20;99.90;;;;;;5075283;28;20462;-84
2021/11/25 00:04:19;;;;;;;33.95;15.40;;;2.10;99.90;;;;;;5074974;28;20085;-84
2021/11/25 00:06:45;;;;;;;33.50;15.43;;;2.10;99.90;;;;;;5075257;28;20104;-84
2021/11/25 00:09:11;;;;;;;33.00;15.98;;;2.00;99.90;;;;;;5075261;28;20021;-84
2021/11/25 00:11:36;;;;;;;30.88;14.80;;;1.90;99.90;;;;;;5075123;28;20036;-84
2021/11/25 00:14:03;;;;;;;23.17;12.77;;;1.80;99.90;;;;;;5076184;28;20057;-85
2021/11/25 00:16:28;;;;;;;22.65;12.73;;;1.80;99.90;;;;;;5076222;28;20032;-84
2021/11/25 00:18:55;;;;;;;24.67;13.57;;;1.70;99.90;;;;;;5074962;28;20434;-84
2021/11/25 00:21:21;;;;;;;26.85;15.15;;;1.60;99.90;;;;;;5076329;28;20096;-84
2021/11/25 00:23:48;;;;;;;39.28;21.13;;;1.60;99.90;;;;;;5074959;28;20052;-84
2021/11/25 00:26:14;;;;;;;40.08;21.88;;;1.50;99.90;;;;;;5074866;28;20028;-84
2021/11/25 00:28:40;;;;;;;36.42;19.95;;;1.50;99.90;;;;;;5074357;28;20034;-84
2021/11/25 00:31:06;;;;;;;37.00;21.75;;;1.40;99.90;;;;;;5076084;28;20029;-84
2021/11/25 00:33:32;;;;;;;32.30;18.77;;;1.40;99.90;;;;;;5074714;28;20025;-84
2021/11/25 00:35:58;;;;;;;30.35;17.77;;;1.30;99.90;;;;;;5074636;28;20115;-84
2021/11/25 00:38:24;;;;;;;30.45;16.70;;;1.30;99.90;;;;;;5075676;28;20025;-84
2021/11/25 00:40:50;;;;;;;22.85;13.85;;;1.20;99.90;;;;;;5074592;28;20024;-84
2021/11/25 00:43:16;;;;;;;22.17;12.93;;;1.20;99.90;;;;;;5075906;28;20029;-84
2021/11/25 00:45:42;;;;;;;27.08;14.60;;;1.10;99.90;;;;;;5074662;28;20024;-84
2021/11/25 00:48:08;;;;;;;24.63;14.18;;;1.10;99.90;;;;;;5075786;28;20032;-84
2021/11/25 00:50:34;;;;;;;26.33;13.68;;;1.00;99.90;;;;;;5075717;28;20032;-84
2021/11/25 00:53:00;;;;;;;23.20;14.48;;;1.00;99.90;;;;;;5075701;28;20035;-84
2021/11/25 00:55:26;;;;;;;25.02;13.73;;;0.90;99.90;;;;;;5075342;28;20052;-84
2021/11/25 00:57:52;;;;;;;24.73;13.88;;;0.90;99.90;;;;;;5074379;28;20036;-84
2021/11/25 01:00:20;;;;;;;27.90;14.32;;;0.90;99.90;;;;;;5074260;28;20028;-84
2021/11/25 01:02:47;;;;;;;25.95;14.63;;;0.80;99.90;;;;;;5073925;28;20020;-83
2021/11/25 01:05:14;;;;;;;24.83;14.07;;;0.80;99.90;;;;;;5074222;28;20394;-84
2021/11/25 01:07:40;;;;;;;24.20;13.70;;;0.80;99.90;;;;;;5074129;28;20036;-84
2021/11/25 01:10:08;;;;;;;23.83;13.48;;;0.70;99.90;;;;;;5074119;28;20029;-84
2021/11/25 01:12:35;;;;;;;27.30;14.70;;;0.70;99.90;;;;;;5073801;28;20028;-84
2021/11/25 01:15:00;;;;;;;24.75;13.63;;;0.70;99.90;;;;;;5073943;28;20043;-84
2021/11/25 01:17:26;;;;;;;34.03;18.27;;;0.70;99.90;;;;;;5073934;28;20017;-84
2021/11/25 01:19:52;;;;;;;37.10;21.48;;;0.60;99.90;;;;;;5073885;28;20453;-84
2021/11/25 01:22:18;;;;;;;32.25;18.55;;;0.60;99.90;;;;;;5073410;28;20074;-84
2021/11/25 01:24:44;;;;;;;27.75;15.98;;;0.60;99.90;;;;;;5073488;28;20017;-84
2021/11/25 01:27:10;;;;;;;29.27;15.57;;;0.50;99.90;;;;;;5074784;28;20032;-84
2021/11/25 01:29:36;;;;;;;22.58;13.90;;;0.50;99.90;;;;;;5074993;28;20025;-84
2021/11/25 01:32:02;;;;;;;26.48;15.10;;;0.50;99.90;;;;;;5073481;28;20364;-84
2021/11/25 01:34:28;;;;;;;25.67;14.27;;;0.40;99.90;;;;;;5074746;28;20458;-84
2021/11/25 01:36:54;;;;;;;23.13;14.10;;;0.40;99.90;;;;;;5073484;28;20031;-84
2021/11/25 01:39:20;;;;;;;24.48;14.07;;;0.30;99.90;;;;;;5074294;28;20048;-84
2021/11/25 01:41:47;;;;;;;27.23;15.07;;;0.30;99.90;;;;;;5074494;28;20029;-84
2021/11/25 01:44:14;;;;;;;28.60;15.02;;;0.30;99.90;;;;;;5073492;28;20541;-84
2021/11/25 01:46:40;;;;;;;31.73;15.50;;;0.30;99.90;;;;;;5073287;28;20021;-84
2021/11/25 01:49:06;;;;;;;25.80;14.73;;;0.30;99.90;;;;;;5074951;28;20043;-84
2021/11/25 01:51:33;;;;;;;25.65;14.50;;;0.20;99.90;;;;;;5074242;28;20449;-84
2021/11/25 01:53:58;;;;;;;29.83;16.65;;;0.20;99.90;;;;;;5073175;28;20024;-84
2021/11/25 01:56:24;;;;;;;29.75;17.25;;;0.20;99.90;;;;;;5074142;28;20505;-84
2021/11/25 01:58:50;;;;;;;28.95;16.23;;;0.20;99.90;;;;;;5074165;28;20410;-84
2021/11/25 02:01:19;;;;;;;38.50;22.52;;;0.20;99.90;;;;;;5072827;28;20066;-84
2021/11/25 02:03:46;;;;;;;33.90;20.52;;;0.20;99.90;;;;;;5074267;28;20029;-84
2021/11/25 02:06:14;;;;;;;37.42;21.90;;;0.20;99.90;;;;;;5072965;28;20028;-84
2021/11/25 02:08:40;;;;;;;41.72;25.23;;;0.20;99.90;;;;;;5074230;28;20024;-84
2021/11/25 02:11:06;;;;;;;42.75;22.83;;;0.20;99.90;;;;;;5072642;28;20028;-84
2021/11/25 02:13:33;;;;;;;42.47;24.10;;;0.20;99.90;;;;;;5072877;28;20129;-84
2021/11/25 02:15:59;;;;;;;37.30;22.77;;;0.20;99.90;;;;;;5073985;28;20463;-84
2021/11/25 02:18:26;;;;;;;36.60;20.95;;;0.10;99.90;;;;;;5072574;28;20536;-84
2021/11/25 02:20:58;;;;;;;34.38;20.75;;;0.20;99.90;;;;;;5069966;28;20020;-84
2021/11/25 02:23:25;;;;;;;35.53;20.20;;;0.20;99.90;;;;;;5068687;28;20025;-84
2021/11/25 02:25:51;;;;;;;34.13;19.70;;;0.30;99.90;;;;;;5072538;28;20033;-84
2021/11/25 02:28:24;;;;;;;39.38;22.40;;;0.30;99.90;;;;;;5074062;28;20032;-84
2021/11/25 02:30:50;;;;;;;41.35;22.33;;;0.30;99.90;;;;;;5072511;28;20032;-84
2021/11/25 02:33:17;;;;;;;36.72;20.42;;;0.40;99.90;;;;;;5074124;28;20028;-84
2021/11/25 02:35:44;;;;;;;50.08;28.15;;;0.40;99.90;;;;;;5072447;28;20028;-85
2021/11/25 02:38:12;;;;;;;35.80;20.50;;;0.40;99.90;;;;;;5072544;28;20017;-84
2021/11/25 02:40:45;;;;;;;39.30;22.17;;;0.50;99.90;;;;;;5073442;28;20032;-84
2021/11/25 02:43:14;;;;;;;35.50;21.33;;;0.50;99.90;;;;;;5085412;28;20064;-84
2021/11/25 02:45:53;;;;;;;33.55;18.58;;;0.60;99.90;;;;;;5052479;28;20025;-84
2021/11/25 02:48:25;;;;;;;31.27;18.38;;;0.60;99.90;;;;;;5052389;28;20096;-84
2021/11/25 02:50:52;;;;;;;36.03;19.27;;;0.70;99.90;;;;;;5053423;28;20108;-84
2021/11/25 02:53:21;;;;;;;31.30;18.08;;;0.70;99.90;;;;;;5058099;28;20064;-84
2021/11/25 02:55:47;;;;;;;32.85;17.02;;;0.70;99.90;;;;;;5072091;28;20051;-84
2021/11/25 02:58:12;;;;;;;31.23;18.25;;;0.80;99.90;;;;;;5072364;28;20020;-84
2021/11/25 03:00:42;;;;;;;28.45;16.80;;;0.80;99.90;;;;;;5072012;28;20021;-84
2021/11/25 03:03:12;;;;;;;31.90;18.83;;;0.80;99.90;;;;;;5073742;28;20029;-84
2021/11/25 03:05:39;;;;;;;31.23;18.27;;;0.90;99.90;;;;;;5073832;28;20024;-84
2021/11/25 03:08:07;;;;;;;33.63;18.27;;;0.90;99.90;;;;;;5072378;28;20568;-84
2021/11/25 03:10:39;;;;;;;34.70;18.95;;;0.90;99.90;;;;;;5073228;28;20032;-84
2021/11/25 03:13:05;;;;;;;30.20;19.02;;;0.90;99.90;;;;;;5072212;28;20032;-84
2021/11/25 03:15:33;;;;;;;32.28;19.33;;;0.90;99.90;;;;;;5071579;28;20031;-84
2021/11/25 03:17:59;;;;;;;34.22;20.50;;;0.90;99.90;;;;;;5073716;28;20017;-84
2021/11/25 03:20:25;;;;;;;35.42;20.73;;;0.90;99.90;;;;;;5072453;28;20485;-84
2021/11/25 03:22:51;;;;;;;36.13;22.55;;;1.00;99.90;;;;;;5073266;28;20036;-84
2021/11/25 03:25:17;;;;;;;39.80;21.52;;;1.00;99.90;;;;;;5071674;28;20107;-84
2021/11/25 03:27:43;;;;;;;39.85;22.10;;;1.00;99.90;;;;;;5072147;28;20074;-84
2021/11/25 03:30:09;;;;;;;38.75;22.35;;;1.00;99.90;;;;;;5072828;28;20413;-83
2021/11/25 03:32:35;;;;;;;43.13;25.25;;;1.10;99.90;;;;;;5071485;28;20056;-84
2021/11/25 03:35:01;;;;;;;52.13;27.15;;;1.10;99.90;;;;;;5071920;28;20470;-84
2021/11/25 03:37:27;;;;;;;65.53;31.05;;;1.20;99.90;;;;;;5072309;28;20023;-84
2021/11/25 03:39:52;;;;;;;60.30;30.20;;;1.20;99.90;;;;;;5071206;28;20024;-84
2021/11/25 03:42:18;;;;;;;62.42;30.23;;;1.20;99.90;;;;;;5071801;28;20111;-84
2021/11/25 03:44:45;;;;;;;51.70;25.40;;;1.20;99.90;;;;;;5071900;28;20113;-84
2021/11/25 03:47:11;;;;;;;73.45;31.67;;;1.20;99.90;;;;;;5073050;28;20107;-84
2021/11/25 03:49:37;;;;;;;97.90;39.13;;;1.30;99.90;;;;;;5071880;28;20025;-84
2021/11/25 03:52:03;;;;;;;77.28;33.05;;;1.40;99.90;;;;;;5070921;28;20032;-84
2021/11/25 03:54:29;;;;;;;102.07;42.55;;;1.40;99.90;;;;;;5058570;28;20059;-84
2021/11/25 03:56:55;;;;;;;95.13;42.17;;;1.40;99.90;;;;;;5072878;28;20029;-84
2021/11/25 03:59:21;;;;;;;40.75;21.55;;;1.40;99.90;;;;;;5071712;28;20482;-84
2021/11/25 04:01:46;;;;;;;54.67;28.23;;;1.40;99.90;;;;;;5070776;28;20446;-84
2021/11/25 04:04:12;;;;;;;50.95;27.95;;;1.50;99.90;;;;;;5073677;28;20486;-84
2021/11/25 04:06:38;;;;;;;43.50;22.85;;;1.50;99.90;;;;;;5076287;28;20033;-84
2021/11/25 04:09:04;;;;;;;55.05;30.67;;;1.50;99.90;;;;;;5074400;28;20082;-84
2021/11/25 04:11:30;;;;;;;40.58;23.35;;;1.50;99.90;;;;;;5064603;28;20033;-84
2021/11/25 04:13:57;;;;;;;45.42;26.88;;;1.40;99.90;;;;;;5071129;28;20504;-84
2021/11/25 04:16:23;;;;;;;44.67;26.67;;;1.40;99.90;;;;;;5076298;28;20031;-84
2021/11/25 04:18:48;;;;;;;39.95;22.05;;;1.50;99.90;;;;;;5075261;28;20021;-84
2021/11/25 04:21:14;;;;;;;34.38;19.65;;;1.50;99.90;;;;;;5076034;28;20036;-84
2021/11/25 04:23:40;;;;;;;40.35;23.48;;;1.50;99.90;;;;;;5076148;28;20025;-84
2021/11/25 04:26:06;;;;;;;41.70;22.88;;;1.50;99.90;;;;;;5075578;28;20030;-84
2021/11/25 04:28:31;;;;;;;40.65;23.92;;;1.50;99.90;;;;;;5075782;28;20434;-84
2021/11/25 04:36:26;;;;;;;82.00;51.28;;;1.50;99.90;;;;;;5088293;28;20119;-84
2021/11/25 04:38:51;;;;;;;64.13;41.58;;;1.50;99.90;;;;;;5077958;28;20111;-84
2021/11/25 04:41:17;;;;;;;62.85;41.40;;;1.50;99.90;;;;;;5074290;28;20382;-84
2021/11/25 04:43:43;;;;;;;57.75;35.80;;;1.50;99.90;;;;;;5075659;28;20032;-84
2021/11/25 04:46:09;;;;;;;56.00;36.60;;;1.50;99.90;;;;;;5074074;28;20071;-84
2021/11/25 04:48:35;;;;;;;50.10;30.23;;;1.60;99.90;;;;;;5074321;28;20056;-85
2021/11/25 04:51:01;;;;;;;41.08;23.58;;;1.60;99.90;;;;;;5075397;28;20032;-84
2021/11/25 04:53:28;;;;;;;42.53;25.02;;;1.60;99.90;;;;;;5075654;28;20025;-84
2021/11/25 04:55:54;;;;;;;39.45;21.15;;;1.60;99.90;;;;;;5074088;28;20044;-85
2021/11/25 04:58:20;;;;;;;37.78;22.13;;;1.60;99.90;;;;;;5075504;28;20021;-84
2021/11/25 05:00:46;;;;;;;37.90;21.02;;;1.70;99.90;;;;;;5073448;28;20070;-84
2021/11/25 05:03:12;;;;;;;39.53;21.08;;;1.60;99.90;;;;;;5074659;28;20107;-85
2021/11/25 05:05:39;;;;;;;40.08;20.35;;;1.70;99.90;;;;;;5074246;28;20120;-86
2021/11/25 05:08:05;;;;;;;37.67;19.35;;;1.70;99.90;;;;;;5073890;28;20398;-84
2021/11/25 05:10:31;;;;;;;35.38;19.92;;;1.70;99.90;;;;;;5073832;28;20029;-84
2021/11/25 05:12:56;;;;;;;37.35;19.90;;;1.70;99.90;;;;;;5075115;28;20021;-84
2021/11/25 05:15:22;;;;;;;35.03;21.02;;;1.70;99.90;;;;;;5073469;28;20029;-85
2021/11/25 05:17:48;;;;;;;37.53;19.63;;;1.70;99.90;;;;;;5074628;28;20031;-84
2021/11/25 05:20:15;;;;;;;33.22;19.70;;;1.70;99.90;;;;;;5073420;28;20111;-85
2021/11/25 05:22:41;;;;;;;33.53;19.75;;;1.60;99.90;;;;;;5073182;28;20021;-87
2021/11/25 05:25:09;;;;;;;33.03;19.60;;;1.60;99.90;;;;;;5074885;28;20559;-86
2021/11/25 05:27:35;;;;;;;39.15;22.08;;;1.60;99.90;;;;;;5073682;28;20029;-85
2021/11/25 05:30:02;;;;;;;38.65;20.23;;;1.60;99.90;;;;;;5073481;28;20372;-84
2021/11/25 05:32:28;;;;;;;37.17;20.48;;;1.60;99.90;;;;;;5075766;28;21434;-85
2021/11/25 05:34:53;;;;;;;40.97;21.95;;;1.70;99.90;;;;;;5073075;28;20040;-85
2021/11/25 05:37:19;;;;;;;38.63;22.38;;;1.70;99.90;;;;;;5072369;28;20027;-83
2021/11/25 14:18:36;;;;;;;16.05;9.43;;;3.80;95.90;;;;;;5111069;27;20366;-82
2021/11/25 14:21:02;;;;;;;17.38;9.90;;;3.70;96.30;;;;;;5110172;28;20470;-83
2021/11/25 14:23:28;;;;;;;13.48;8.70;;;3.70;95.90;;;;;;5109845;28;20032;-84
2021/11/25 14:26:01;;;;;;;15.63;9.23;;;3.70;96.30;;;;;;5110033;28;20504;-82
2021/11/25 14:31:17;;;;;;;18.90;10.77;;;3.80;97.30;;;;;;5111392;28;20073;-82
2021/11/25 14:33:51;;;;;;;17.08;10.18;;;3.80;97.00;;;;;;5109855;28;20027;-83
2021/11/25 14:36:29;;;;;;;21.23;12.30;;;3.80;97.10;;;;;;5111006;28;20525;-83
2021/11/25 14:39:01;;;;;;;22.20;12.70;;;3.80;96.70;;;;;;5111070;28;20016;-83
2021/11/25 14:41:34;;;;;;;21.58;12.07;;;3.80;97.10;;;;;;5104312;28;20016;-84
2021/11/25 14:44:06;;;;;;;26.98;14.82;;;3.80;96.90;;;;;;5089302;28;20074;-83
2021/11/25 14:46:34;;;;;;;17.23;10.77;;;3.80;96.80;;;;;;5090185;28;20482;-84
2021/11/25 14:49:01;;;;;;;21.05;12.02;;;3.80;97.10;;;;;;5089370;28;20039;-83
2021/11/25 14:51:27;;;;;;;22.30;11.57;;;3.80;96.70;;;;;;5090648;28;20031;-83
2021/11/25 14:53:54;;;;;;;23.85;13.45;;;3.90;97.20;;;;;;5090435;28;20036;-83
2021/11/25 14:56:27;;;;;;;22.85;13.68;;;3.90;97.10;;;;;;5090612;28;20036;-85
2021/11/25 14:58:53;;;;;;;23.73;13.73;;;3.90;97.70;;;;;;5091789;28;20383;-84
2021/11/25 15:01:25;;;;;;;20.27;11.93;;;3.90;96.70;;;;;;5089074;28;20032;-85
2021/11/25 15:26:46;;;;;;;30.75;16.10;;;3.80;97.40;;;;;;5081103;27;20386;-84
2021/11/25 15:29:12;;;;;;;27.85;14.93;;;3.80;97.70;;;;;;5069745;28;20471;-84
2021/11/25 15:31:41;;;;;;;31.83;17.40;;;3.70;98.10;;;;;;5069858;28;20074;-84
2021/11/25 15:34:07;;;;;;;31.40;18.35;;;3.70;98.80;;;;;;5069529;28;20025;-84
2021/11/25 15:36:33;;;;;;;33.85;19.17;;;3.70;99.00;;;;;;5068755;28;20756;-82
2021/11/25 15:38:59;;;;;;;41.58;22.27;;;3.80;99.10;;;;;;5069208;28;20060;-83
2021/11/25 15:41:26;;;;;;;37.83;21.23;;;3.80;98.90;;;;;;5068844;28;20085;-83
2021/11/25 15:43:52;;;;;;;36.45;20.67;;;3.80;99.10;;;;;;5070697;28;20099;-83
2021/11/25 15:46:19;;;;;;;34.20;20.65;;;3.80;98.80;;;;;;5069066;28;20182;-82
2021/11/25 15:48:48;;;;;;;32.53;18.60;;;3.90;99.20;;;;;;5069132;28;20052;-83
2021/11/25 15:51:14;;;;;;;30.80;15.77;;;3.80;98.80;;;;;;5069237;28;20036;-83
2021/11/25 15:53:40;;;;;;;24.90;14.90;;;3.90;98.80;;;;;;5069149;28;20025;-82
2021/11/25 15:56:05;;;;;;;22.83;12.38;;;3.90;99.00;;;;;;5068325;28;20047;-82
2021/11/25 15:58:31;;;;;;;22.02;12.63;;;3.90;99.00;;;;;;5070239;28;20021;-82
2021/11/25 16:00:57;;;;;;;21.77;12.90;;;3.90;99.10;;;;;;5070470;28;20024;-81
2021/11/25 16:03:23;;;;;;;23.48;13.15;;;3.90;99.10;;;;;;5070270;28;20481;-81
2021/11/25 16:05:49;;;;;;;23.35;13.65;;;3.90;99.00;;;;;;5068906;28;20032;-82
2021/11/25 16:08:16;;;;;;;29.80;13.80;;;3.90;99.00;;;;;;5068821;28;20390;-81
2021/11/25 16:10:42;;;;;;;24.85;14.25;;;3.90;99.00;;;;;;5068757;28;20028;-81
2021/11/25 16:13:14;;;;;;;25.33;14.68;;;3.90;99.00;;;;;;5069870;28;20530;-82
2021/11/25 16:15:47;;;;;;;23.70;14.80;;;4.00;99.20;;;;;;5068690;28;20021;-82
2021/11/25 16:18:15;;;;;;;21.45;13.73;;;4.00;99.30;;;;;;5069902;28;20092;-82
2021/11/25 16:20:41;;;;;;;25.85;14.48;;;3.90;99.20;;;;;;5068570;28;20407;-84
2021/11/25 16:23:07;;;;;;;27.20;15.05;;;3.90;99.00;;;;;;5069832;28;20017;-81
2021/11/25 16:25:34;;;;;;;22.52;14.70;;;4.00;99.00;;;;;;5069485;28;20052;-82
2021/11/25 16:28:02;;;;;;;23.40;14.52;;;3.90;99.30;;;;;;5068394;28;20113;-81
2021/11/25 16:30:59;;;;;;;25.90;14.63;;;3.90;99.10;;;;;;5068372;28;20471;-83
2021/11/25 16:33:25;;;;;;;22.67;13.82;;;3.90;99.30;;;;;;5052569;28;20056;-83
2021/11/25 16:35:51;;;;;;;24.05;15.00;;;4.00;99.20;;;;;;5069388;28;20430;-83
2021/11/25 16:38:18;;;;;;;22.38;13.13;;;3.90;99.10;;;;;;5055744;28;20052;-82
2021/11/25 16:40:47;;;;;;;19.88;13.00;;;4.00;99.10;;;;;;5056382;28;20033;-82
2021/11/25 16:43:13;;;;;;;24.47;12.43;;;4.00;99.40;;;;;;5055621;28;20068;-82
2021/11/25 16:45:39;;;;;;;21.42;12.98;;;3.90;99.20;;;;;;5056385;28;20053;-81
2021/11/25 16:48:21;;;;;;;19.38;12.30;;;3.90;99.30;;;;;;5056130;28;20029;-84
2021/11/25 16:51:01;;;;;;;25.65;14.13;;;4.00;99.30;;;;;;5056239;28;20464;-82
2021/11/25 16:53:32;;;;;;;26.35;13.85;;;3.90;99.00;;;;;;5055137;28;20025;-83
2021/11/25 16:55:58;;;;;;;25.25;14.48;;;3.90;99.30;;;;;;5054967;28;20032;-83
2021/11/25 16:58:27;;;;;;;25.35;14.45;;;3.90;99.50;;;;;;5054740;28;20029;-83
2021/11/25 17:00:53;;;;;;;25.10;13.82;;;3.90;99.30;;;;;;5054554;28;20107;-83
2021/11/25 17:03:22;;;;;;;43.15;19.65;;;3.90;99.20;;;;;;5055949;28;20024;-83
2021/11/25 17:05:48;;;;;;;47.83;20.38;;;3.90;99.40;;;;;;5054428;28;20119;-83
2021/11/25 17:08:15;;;;;;;61.00;23.45;;;3.90;99.30;;;;;;5055662;28;20021;-83
2021/11/25 17:10:41;;;;;;;63.67;26.70;;;3.90;99.10;;;;;;5054400;28;20074;-83
2021/11/25 17:13:08;;;;;;;66.63;25.13;;;3.90;99.10;;;;;;5054429;28;20116;-82
2021/11/25 17:15:34;;;;;;;62.70;25.80;;;3.90;99.40;;;;;;5054468;28;20021;-84
2021/11/25 17:18:00;;;;;;;62.53;24.83;;;3.90;99.40;;;;;;5054262;28;20380;-82
2021/11/25 17:20:26;;;;;;;82.20;30.60;;;3.80;99.20;;;;;;5055432;28;20029;-82
2021/11/25 17:22:53;;;;;;;84.65;32.20;;;3.80;99.20;;;;;;5054269;28;20029;-82
2021/11/25 17:25:20;;;;;;;79.43;30.50;;;3.80;99.20;;;;;;5053834;28;20056;-83
2021/11/25 17:27:47;;;;;;;47.63;21.25;;;3.80;98.90;;;;;;5054296;28;20471;-83
2021/11/25 17:30:15;;;;;;;42.13;20.05;;;3.80;99.10;;;;;;5055250;28;20017;-83
2021/11/25 17:32:42;;;;;;;37.45;18.75;;;3.70;99.20;;;;;;5053706;28;20464;-82
2021/11/25 17:35:10;;;;;;;39.05;18.05;;;3.70;99.40;;;;;;5055319;28;20486;-83
2021/11/25 17:37:40;;;;;;;31.27;16.88;;;3.70;99.40;;;;;;5053878;28;20021;-84
2021/11/25 17:40:06;;;;;;;21.63;13.50;;;3.70;99.40;;;;;;5053913;28;20491;-83
2021/11/25 17:42:32;;;;;;;25.38;12.30;;;3.60;99.20;;;;;;5053823;28;20041;-82
2021/11/25 17:44:58;;;;;;;18.67;12.32;;;3.60;99.40;;;;;;5053721;28;20032;-82
2021/11/25 17:47:24;;;;;;;17.48;11.18;;;3.50;99.20;;;;;;5055120;28;20048;-82
2021/11/25 17:49:49;;;;;;;20.25;10.98;;;3.50;99.40;;;;;;5053935;28;20142;-83
2021/11/25 17:52:15;;;;;;;19.33;11.00;;;3.40;99.10;;;;;;5055068;28;20364;-82
2021/11/25 17:54:41;;;;;;;24.65;13.15;;;3.30;99.00;;;;;;5054932;28;20467;-83
2021/11/25 17:57:07;;;;;;;48.97;21.85;;;3.20;99.30;;;;;;5053712;28;20025;-83
2021/11/25 17:59:33;;;;;;;84.28;31.33;;;3.10;99.20;;;;;;5053493;28;20032;-83
2021/11/25 18:01:59;;;;;;;73.55;28.27;;;3.00;99.60;;;;;;5054684;28;20063;-83
2021/11/25 18:04:25;;;;;;;82.82;29.73;;;3.00;99.30;;;;;;5053265;28;20066;-83
2021/11/25 18:06:51;;;;;;;64.10;24.73;;;2.90;99.50;;;;;;5053420;28;20025;-83
2021/11/25 18:09:17;;;;;;;62.15;25.48;;;2.80;99.60;;;;;;5054767;28;20017;-83
2021/11/25 18:11:43;;;;;;;45.33;19.90;;;2.80;99.70;;;;;;5054485;28;20025;-83
2021/11/25 18:14:09;;;;;;;47.00;20.27;;;2.70;99.90;;;;;;5054512;28;20040;-82
2021/11/25 18:16:35;;;;;;;40.38;17.63;;;2.60;99.80;;;;;;5053256;28;20082;-82
2021/11/25 18:19:03;;;;;;;50.20;23.02;;;2.60;99.80;;;;;;5052874;28;20029;-82
2021/11/25 18:21:30;;;;;;;30.70;15.50;;;2.50;99.90;;;;;;5054487;28;20036;-83
2021/11/25 18:23:56;;;;;;;25.52;14.50;;;2.50;99.90;;;;;;5053201;28;20078;-83
2021/11/25 18:26:25;;;;;;;21.52;11.63;;;2.50;99.90;;;;;;5052610;28;20095;-82
2021/11/25 18:28:53;;;;;;;23.13;13.10;;;2.50;99.80;;;;;;5054346;28;20482;-85
2021/11/25 18:31:19;;;;;;;23.98;12.98;;;2.60;99.90;;;;;;5054202;28;20040;-82
2021/11/25 18:33:46;;;;;;;27.38;13.25;;;2.60;99.90;;;;;;5054133;28;20021;-82
2021/11/25 18:36:14;;;;;;;17.60;11.00;;;2.60;99.70;;;;;;5052834;28;20383;-82
2021/11/25 18:38:40;;;;;;;19.65;12.00;;;2.70;99.90;;;;;;5053798;28;20043;-83
2021/11/25 18:41:07;;;;;;;16.38;10.70;;;2.70;99.70;;;;;;5053873;28;20068;-83
2021/11/25 18:43:33;;;;;;;28.42;16.60;;;2.70;99.80;;;;;;5053907;28;20028;-83
2021/11/25 18:45:59;;;;;;;28.55;16.15;;;2.80;99.70;;;;;;5053839;28;20029;-82
2021/11/25 18:48:29;;;;;;;25.70;15.80;;;2.80;99.30;;;;;;5054026;28;20032;-82
2021/11/25 18:50:56;;;;;;;20.15;11.93;;;2.80;99.20;;;;;;5069261;28;20112;-82
2021/11/25 18:53:23;;;;;;;30.75;16.45;;;2.80;99.30;;;;;;5052551;28;20064;-82
2021/11/25 18:55:51;;;;;;;26.38;15.57;;;2.80;99.30;;;;;;5053392;28;20398;-83
2021/11/25 18:58:19;;;;;;;24.70;13.25;;;2.90;99.40;;;;;;5052200;28;20041;-83
2021/11/25 19:00:46;;;;;;;21.63;13.35;;;2.80;99.40;;;;;;5052316;28;20033;-83
2021/11/25 19:03:12;;;;;;;18.98;11.65;;;2.80;99.50;;;;;;5053643;28;20028;-83
2021/11/25 19:05:38;;;;;;;20.60;12.40;;;2.80;99.50;;;;;;5053394;28;20040;-83
2021/11/25 19:08:04;;;;;;;22.23;11.68;;;2.90;99.50;;;;;;5053568;28;20099;-83
2021/11/25 19:10:30;;;;;;;20.75;13.65;;;2.90;99.60;;;;;;5053720;28;20048;-82
2021/11/25 19:12:56;;;;;;;17.60;11.82;;;3.00;99.40;;;;;;5053762;28;20025;-82
2021/11/25 19:15:25;;;;;;;21.92;11.80;;;2.90;99.30;;;;;;5052002;28;20059;-82
2021/11/25 19:17:51;;;;;;;23.73;12.60;;;3.00;99.50;;;;;;5052215;28;20032;-82
2021/11/25 19:20:17;;;;;;;24.00;12.65;;;3.00;99.30;;;;;;5052177;28;20025;-82
2021/11/25 19:22:44;;;;;;;21.83;12.90;;;3.00;99.20;;;;;;5051557;28;20028;-82
2021/11/25 19:25:10;;;;;;;22.77;11.52;;;3.00;99.00;;;;;;5051659;28;20053;-83
2021/11/25 19:27:37;;;;;;;25.15;12.52;;;3.10;99.20;;;;;;5053629;28;20021;-85
2021/11/25 19:30:04;;;;;;;24.52;12.80;;;3.00;98.80;;;;;;5052360;28;20025;-84
2021/11/25 19:32:33;;;;;;;27.70;13.88;;;3.10;99.10;;;;;;5051894;28;20025;-83
2021/11/25 19:35:17;;;;;;;32.95;18.42;;;3.10;98.70;;;;;;5053665;28;20025;-85
2021/11/25 19:37:44;;;;;;;34.72;17.70;;;3.10;98.90;;;;;;5053406;28;20033;-85
2021/11/25 19:40:12;;;;;;;36.38;18.88;;;3.00;98.20;;;;;;5053356;28;20463;-85
2021/11/25 19:42:39;;;;;;;43.88;23.55;;;3.00;98.70;;;;;;5053422;28;20025;-83
2021/11/25 19:45:07;;;;;;;38.30;20.48;;;3.00;98.80;;;;;;5051314;28;20029;-84
2021/11/25 19:47:34;;;;;;;30.75;17.38;;;3.00;98.80;;;;;;5049116;28;20025;-84
2021/11/25 19:50:00;;;;;;;28.27;14.77;;;3.00;98.70;;;;;;5051851;28;20031;-85
2021/11/25 19:52:26;;;;;;;32.28;16.50;;;3.00;98.70;;;;;;5052576;28;20017;-84
2021/11/25 19:54:53;;;;;;;24.75;14.88;;;3.10;98.90;;;;;;5051925;28;20364;-84
2021/11/25 19:57:19;;;;;;;22.60;12.05;;;3.10;98.80;;;;;;5051759;28;20467;-84
2021/11/25 19:59:48;;;;;;;37.58;18.33;;;3.00;98.80;;;;;;5051832;28;20029;-84
2021/11/25 20:02:14;;;;;;;26.35;13.80;;;3.00;98.60;;;;;;5051780;28;20066;-84
2021/11/25 20:04:40;;;;;;;20.73;12.93;;;3.00;98.80;;;;;;5051924;28;20438;-84
2021/11/25 20:07:06;;;;;;;22.73;13.20;;;2.90;98.90;;;;;;5053232;28;20052;-85
2021/11/25 20:09:32;;;;;;;29.05;14.30;;;3.00;99.10;;;;;;5053067;28;20048;-83
2021/11/25 20:11:58;;;;;;;30.65;15.10;;;3.00;99.00;;;;;;5066418;28;20025;-84
2021/11/25 20:14:24;;;;;;;30.77;16.48;;;2.90;98.80;;;;;;5054560;28;20024;-84
2021/11/25 20:16:50;;;;;;;35.47;17.98;;;2.90;99.00;;;;;;5056631;28;20021;-84
2021/11/25 20:19:17;;;;;;;30.63;15.48;;;2.80;98.80;;;;;;5055449;28;20116;-83
2021/11/25 20:21:43;;;;;;;37.20;17.08;;;2.80;99.00;;;;;;5055178;28;20494;-84
2021/11/25 20:24:09;;;;;;;46.75;20.25;;;2.90;98.70;;;;;;5054936;28;20065;-84
2021/11/25 20:26:36;;;;;;;75.63;29.50;;;2.80;98.60;;;;;;5055445;28;20141;-83
2021/11/25 20:29:03;;;;;;;105.10;37.83;;;2.90;98.60;;;;;;5055815;28;20487;-84
2021/11/25 20:31:29;;;;;;;125.07;45.38;;;2.90;99.00;;;;;;5054361;28;20025;-83
2021/11/25 20:33:56;;;;;;;141.10;50.67;;;2.90;99.20;;;;;;5062029;28;20028;-83
2021/11/25 20:36:23;;;;;;;132.55;47.53;;;2.90;99.10;;;;;;5067244;28;20037;-84
2021/11/25 20:38:49;;;;;;;126.97;45.83;;;2.90;99.30;;;;;;5054640;28;20028;-84
2021/11/25 20:41:15;;;;;;;127.95;47.03;;;2.90;99.00;;;;;;5056209;28;20029;-84
2021/11/25 20:43:45;;;;;;;112.90;44.08;;;2.90;99.00;;;;;;5056105;28;20036;-83
2021/11/25 20:46:13;;;;;;;134.45;46.65;;;2.90;99.10;;;;;;5054718;28;20078;-83
2021/11/25 20:48:39;;;;;;;108.57;40.97;;;2.90;98.80;;;;;;5056506;28;20017;-83
2021/11/25 20:51:05;;;;;;;91.65;36.28;;;2.80;99.20;;;;;;5054591;28;20140;-84
2021/11/25 20:53:33;;;;;;;83.63;31.13;;;2.80;99.30;;;;;;5054604;28;20525;-85
2021/11/25 20:55:59;;;;;;;74.28;30.02;;;2.90;99.30;;;;;;5054901;28;20079;-85
2021/11/25 20:58:25;;;;;;;68.35;26.58;;;2.90;99.20;;;;;;5055768;28;20044;-84
2021/11/25 21:00:53;;;;;;;54.80;23.45;;;2.90;99.40;;;;;;5054640;28;20029;-85
2021/11/25 21:03:19;;;;;;;56.97;23.45;;;2.90;99.30;;;;;;5054678;28;20033;-85
2021/11/25 21:05:45;;;;;;;56.15;21.60;;;2.90;99.30;;;;;;5054113;28;20039;-85
2021/11/25 21:08:11;;;;;;;54.83;21.85;;;3.00;99.10;;;;;;5054601;28;20031;-85
2021/11/25 21:10:37;;;;;;;46.70;21.77;;;3.00;99.30;;;;;;5054050;28;20025;-85
2021/11/25 21:13:04;;;;;;;37.65;18.80;;;3.00;99.00;;;;;;5055667;28;20383;-85
2021/11/25 21:15:30;;;;;;;36.95;18.75;;;3.00;98.80;;;;;;5055600;28;20036;-85
2021/11/25 21:17:56;;;;;;;34.85;16.80;;;3.00;99.30;;;;;;5054268;28;20024;-84
2021/11/25 21:20:22;;;;;;;32.97;16.60;;;3.00;99.10;;;;;;5054039;28;20048;-85
2021/11/25 21:22:50;;;;;;;30.17;15.93;;;3.00;99.20;;;;;;5054254;28;20068;-85
2021/11/25 21:25:20;;;;;;;28.90;14.93;;;3.00;99.10;;;;;;5055076;28;20079;-86
2021/11/25 21:27:48;;;;;;;31.42;16.17;;;3.00;99.10;;;;;;5054226;28;20390;-86
2021/11/25 21:30:16;;;;;;;28.83;14.80;;;3.00;99.00;;;;;;5054164;28;20028;-86
2021/11/25 21:32:43;;;;;;;34.00;16.70;;;3.00;99.30;;;;;;5055339;28;20039;-86
2021/11/25 21:35:09;;;;;;;23.35;13.85;;;3.00;99.10;;;;;;5053978;28;20016;-86
2021/11/25 21:37:36;;;;;;;24.80;12.90;;;3.00;99.50;;;;;;5055330;28;20033;-86
2021/11/25 21:40:04;;;;;;;24.45;12.35;;;3.00;99.40;;;;;;5053937;28;20029;-86
2021/11/25 21:42:30;;;;;;;27.02;13.93;;;3.00;99.30;;;;;;5053913;28;20029;-85
2021/11/25 21:44:56;;;;;;;28.77;15.35;;;2.90;99.50;;;;;;5055121;28;20031;-86